Time;durP1;ratioP1;P1;durP2;ratioP2;P2;SDS_P1;SDS_P2;PMS_P1;PMS_P2;Temp;Humidity;BMP_temperature;BMP_pressure;BME280_temperature;BME280_humidity;BME280_pressure;Samples;Min_cycle;Max_cycle;Signal;HPM_P1;HPM_P2
2023/05/28 00:00:08;;;;;;;9.82;2.83;;;;;;;11.98;50.47;99776.66;5055963;28;20055;-60
2023/05/28 00:02:34;;;;;;;8.57;2.40;;;;;;;11.98;50.75;99773.97;5054747;28;20029;-60
2023/05/28 00:05:00;;;;;;;6.80;2.13;;;;;;;11.91;51.03;99771.81;5054903;28;20376;-60
2023/05/28 00:07:28;;;;;;;8.40;2.40;;;;;;;11.96;51.03;99775.94;5055300;28;20025;-58
2023/05/28 00:09:55;;;;;;;3.13;2.30;;;;;;;11.96;51.02;99775.94;5037678;28;20036;-63
2023/05/28 00:12:21;;;;;;;4.82;2.15;;;;;;;11.96;51.01;99775.94;5054737;28;20035;-62
2023/05/28 00:14:47;;;;;;;3.80;2.15;;;;;;;11.99;50.91;99778.34;5054365;28;20060;-61
2023/05/28 00:17:15;;;;;;;5.80;1.98;;;;;;;11.77;50.72;99748.03;5054457;28;20049;-63
2023/05/28 00:19:41;;;;;;;5.10;2.00;;;;;;;11.88;51.09;99772.09;5054508;28;20059;-61
2023/05/28 00:22:07;;;;;;;6.47;2.25;;;;;;;11.85;51.44;99771.50;5036800;28;20479;-61
2023/05/28 00:24:33;;;;;;;7.78;2.30;;;;;;;11.86;51.61;99779.44;5053012;28;20112;-60
2023/05/28 00:26:59;;;;;;;8.40;2.25;;;;;;;11.75;51.53;99766.09;5053868;28;20071;-61
2023/05/28 00:29:26;;;;;;;5.32;2.10;;;;;;;11.82;51.88;99783.38;5054078;28;20037;-62
2023/05/28 00:31:55;;;;;;;4.15;2.08;;;;;;;11.77;51.78;99774.84;5053762;28;20093;-62
2023/05/28 00:34:24;;;;;;;3.30;2.03;;;;;;;11.81;51.62;99772.75;5053743;28;20078;-61
2023/05/28 00:36:50;;;;;;;4.10;2.17;;;;;;;11.70;51.95;99779.06;5053013;28;20044;-62
2023/05/28 00:39:19;;;;;;;6.38;2.30;;;;;;;11.63;52.22;99776.91;5053709;28;20372;-62
2023/05/28 00:41:45;;;;;;;6.05;2.50;;;;;;;11.55;52.45;99767.81;5053586;28;20464;-62
2023/05/28 00:44:12;;;;;;;4.88;2.45;;;;;;;11.48;52.43;99759.44;5036043;28;20048;-62
2023/05/28 00:46:43;;;;;;;4.60;2.55;;;;;;;11.36;52.84;99747.09;5035746;28;20373;-60
2023/05/28 00:49:10;;;;;;;9.20;2.50;;;;;;;11.42;53.07;99762.66;5036602;28;20033;-60
2023/05/28 00:51:36;;;;;;;8.25;2.10;;;;;;;11.31;53.26;99751.00;5052611;28;20037;-62
2023/05/28 00:54:03;;;;;;;6.63;2.38;;;;;;;11.46;53.16;99774.81;5053170;28;20376;-61
2023/05/28 00:56:31;;;;;;;3.58;2.10;;;;;;;11.53;53.02;99783.19;5052831;28;20028;-60
2023/05/28 00:59:00;;;;;;;4.80;2.03;;;;;;;11.54;53.09;99777.69;5052809;28;20498;-61
2023/05/28 01:01:26;;;;;;;7.95;2.38;;;;;;;11.57;53.02;99765.84;5052428;28;20029;-62
2023/05/28 01:03:52;;;;;;;6.28;2.40;;;;;;;11.56;53.36;99769.53;5035422;28;20036;-59
2023/05/28 01:06:20;;;;;;;4.00;2.05;;;;;;;11.55;53.26;99773.19;5052615;28;20025;-63
2023/05/28 01:08:48;;;;;;;4.55;1.85;;;;;;;11.34;53.13;99745.41;5053109;28;20025;-60
2023/05/28 01:11:16;;;;;;;5.05;2.05;;;;;;;11.52;53.37;99778.81;5052710;28;20044;-61
2023/05/28 01:13:42;;;;;;;3.85;2.00;;;;;;;11.46;53.49;99772.13;5053275;28;20028;-62
2023/05/28 01:16:09;;;;;;;3.47;1.85;;;;;;;11.47;53.45;99772.00;5052221;28;20044;-62
2023/05/28 01:18:37;;;;;;;4.27;2.27;;;;;;;11.34;53.47;99745.41;5002781;28;1443435;-62
2023/05/28 01:21:03;;;;;;;4.95;1.92;;;;;;;11.36;53.85;99761.34;5053980;28;20469;-63
2023/05/28 01:23:32;;;;;;;5.82;2.03;;;;;;;11.46;53.56;99778.34;5053764;28;20060;-62
2023/05/28 01:25:59;;;;;;;6.45;1.90;;;;;;;11.48;53.90;99783.56;5053061;28;20065;-59
2023/05/28 01:28:24;;;;;;;6.40;2.05;;;;;;;11.26;53.88;99736.31;5053859;28;20051;-61
2023/05/28 01:30:51;;;;;;;3.58;1.77;;;;;;;11.56;53.84;99788.28;5053799;28;20029;-62
2023/05/28 01:33:18;;;;;;;3.72;2.25;;;;;;;11.48;53.78;99775.53;5053145;28;20029;-61
2023/05/28 01:35:44;;;;;;;5.90;1.95;;;;;;;11.55;53.57;99791.94;5052984;28;20033;-61
2023/05/28 01:38:12;;;;;;;6.03;1.67;;;;;;;11.52;53.34;99787.69;5036283;28;20021;-60
2023/05/28 01:40:46;;;;;;;3.65;1.90;;;;;;;11.59;53.83;99782.66;5052715;28;20091;-62
2023/05/28 01:43:12;;;;;;;4.63;2.20;;;;;;;11.53;53.77;99792.06;5053351;28;20464;-62
2023/05/28 01:45:39;;;;;;;10.30;1.92;;;;;;;11.43;53.80;99794.69;5053673;28;20051;-63
2023/05/28 01:48:06;;;;;;;3.72;1.77;;;;;;;11.44;53.77;99804.41;5053278;28;20082;-61
2023/05/28 01:50:32;;;;;;;2.63;1.90;;;;;;;11.40;54.04;99794.94;5035082;28;20083;-59
2023/05/28 01:52:59;;;;;;;7.38;1.83;;;;;;;11.43;54.12;99802.72;5053083;28;20052;-61
2023/05/28 01:55:25;;;;;;;5.50;1.88;;;;;;;11.36;53.89;99790.81;5053233;28;20039;-61
2023/05/28 01:57:51;;;;;;;3.65;1.77;;;;;;;11.31;54.49;99788.53;5053159;28;20373;-61
2023/05/28 02:00:17;;;;;;;3.83;1.85;;;;;;;11.27;54.53;99784.41;5052504;28;20357;-61
2023/05/28 02:02:42;;;;;;;2.78;1.40;;;;;;;11.28;54.59;99788.78;5053245;28;20420;-61
2023/05/28 02:05:08;;;;;;;5.10;2.20;;;;;;;11.31;54.26;99790.38;5035855;28;20115;-62
2023/05/28 02:07:34;;;;;;;3.13;1.65;;;;;;;11.20;54.51;99764.47;5052576;28;20029;-61
2023/05/28 02:10:00;;;;;;;2.95;1.60;;;;;;;11.33;54.30;99780.38;5051884;28;20362;-63
2023/05/28 02:12:26;;;;;;;6.65;1.83;;;;;;;11.33;54.32;99793.78;5052666;28;20083;-62
2023/05/28 02:14:52;;;;;;;3.95;1.83;;;;;;;11.39;54.48;99789.72;5053080;28;20025;-61
2023/05/28 02:17:18;;;;;;;2.92;1.60;;;;;;;11.32;54.50;99784.88;5035485;28;20143;-64
2023/05/28 02:19:44;;;;;;;4.47;1.52;;;;;;;11.35;54.58;99783.75;5052780;28;20086;-62
2023/05/28 02:22:11;;;;;;;4.05;1.50;;;;;;;11.56;53.90;99802.53;5035156;28;20045;-61
2023/05/28 02:24:38;;;;;;;4.65;1.85;;;;;;;11.72;53.81;99801.22;5052324;28;20029;-61
2023/05/28 02:27:05;;;;;;;4.05;1.42;;;;;;;11.87;53.07;99789.19;5052739;28;20033;-60
2023/05/28 02:29:31;;;;;;;2.75;1.58;;;;;;;11.89;52.56;99751.47;5052203;28;20025;-62
2023/05/28 02:31:57;;;;;;;8.00;1.52;;;;;;;12.29;52.21;99782.88;5052367;28;20392;-60
2023/05/28 02:34:22;;;;;;;2.97;1.50;;;;;;;12.60;51.56;99790.03;5052776;28;20029;-61
2023/05/28 02:36:48;;;;;;;5.65;1.80;;;;;;;12.77;51.04;99789.34;5052839;28;20041;-60
2023/05/28 02:39:14;;;;;;;2.97;1.33;;;;;;;12.94;50.27;99786.13;5052054;28;20033;-61
2023/05/28 02:41:40;;;;;;;6.50;1.65;;;;;;;12.76;50.55;99800.25;5052255;28;20041;-61
2023/05/28 02:44:05;;;;;;;8.25;1.35;;;;;;;12.65;50.88;99787.78;5052717;28;20044;-60
2023/05/28 02:46:31;;;;;;;8.80;1.40;;;;;;;12.56;51.16;99794.00;5034540;28;20039;-61
2023/05/28 02:48:56;;;;;;;8.13;1.25;;;;;;;12.46;51.64;99797.50;5051587;28;20025;-62
2023/05/28 02:51:22;;;;;;;5.32;1.10;;;;;;;12.24;51.84;99762.78;5052118;28;20043;-62
2023/05/28 02:53:47;;;;;;;3.20;1.40;;;;;;;12.33;51.79;99788.84;5052533;28;20039;-60
2023/05/28 02:56:13;;;;;;;3.80;1.15;;;;;;;12.24;52.27;99785.13;5018164;28;20452;-62
2023/05/28 02:58:39;;;;;;;3.92;1.50;;;;;;;12.19;52.19;99790.91;5052052;28;20348;-59
2023/05/28 03:01:06;;;;;;;3.72;1.40;;;;;;;12.12;52.51;99797.81;5051934;28;20451;-59
2023/05/28 03:03:32;;;;;;;4.45;1.63;;;;;;;11.92;52.42;99753.88;5034044;28;20361;-62
2023/05/28 03:05:57;;;;;;;5.72;1.67;;;;;;;12.26;52.54;99798.41;5051812;28;20029;-61
2023/05/28 03:08:23;;;;;;;4.35;1.85;;;;;;;12.39;52.18;99804.41;5052397;28;20115;-61
2023/05/28 03:10:48;;;;;;;4.18;1.52;;;;;;;12.39;51.91;99798.16;5051915;28;20032;-60
2023/05/28 03:13:14;;;;;;;3.17;1.40;;;;;;;12.45;52.06;99795.78;5034149;28;20083;-63
2023/05/28 03:15:39;;;;;;;6.78;1.67;;;;;;;12.44;51.78;99799.47;5051595;28;20028;-61
2023/05/28 03:18:05;;;;;;;3.83;1.40;;;;;;;12.49;51.90;99793.69;5052204;28;20449;-57
2023/05/28 03:20:31;;;;;;;5.20;1.58;;;;;;;12.53;51.82;99783.50;5051650;28;20576;-61
2023/05/28 03:22:57;;;;;;;6.22;1.65;;;;;;;12.64;51.62;99794.97;5051965;28;20052;-59
2023/05/28 03:25:25;;;;;;;3.90;1.52;;;;;;;12.71;51.25;99800.66;5052038;28;20326;-62
2023/05/28 03:27:50;;;;;;;4.85;1.70;;;;;;;12.73;51.42;99808.59;5051973;28;20037;-62
2023/05/28 03:30:16;;;;;;;5.57;1.60;;;;;;;12.71;51.54;99807.88;5051226;28;20102;-60
2023/05/28 03:32:42;;;;;;;2.55;1.40;;;;;;;12.82;51.31;99801.53;5052347;28;20071;-62
2023/05/28 03:35:08;;;;;;;2.67;1.45;;;;;;;12.94;50.73;99803.09;5051630;28;20052;-58
2023/05/28 03:37:34;;;;;;;6.20;1.60;;;;;;;13.11;50.56;99800.72;5051713;28;20021;-60
2023/05/28 03:40:00;;;;;;;2.50;1.75;;;;;;;13.28;50.48;99809.91;5051918;28;20025;-61
2023/05/28 03:42:25;;;;;;;3.83;1.92;;;;;;;13.41;49.81;99794.34;5051548;28;20090;-61
2023/05/28 03:44:51;;;;;;;4.95;1.73;;;;;;;13.58;49.22;99775.78;5051891;28;20040;-57
2023/05/28 03:47:16;;;;;;;3.85;1.50;;;;;;;13.99;48.66;99791.69;5051550;28;20108;-59
2023/05/28 03:49:42;;;;;;;2.17;1.48;;;;;;;14.11;48.06;99805.84;5034498;28;20029;-60
2023/05/28 03:52:09;;;;;;;5.63;2.08;;;;;;;14.04;47.77;99774.09;5051869;28;20025;-61
2023/05/28 03:54:35;;;;;;;4.22;1.48;;;;;;;14.32;47.47;99797.50;5051500;28;20037;-61
2023/05/28 03:57:00;;;;;;;3.22;1.70;;;;;;;14.70;46.72;99795.59;5050786;28;20036;-61
2023/05/28 03:59:27;;;;;;;3.92;1.50;;;;;;;14.90;46.18;99800.88;5053947;28;20029;-60
2023/05/28 04:01:52;;;;;;;5.90;1.83;;;;;;;14.90;46.23;99787.41;5056038;28;20029;-60
2023/05/28 04:04:18;;;;;;;3.63;1.80;;;;;;;15.06;45.95;99794.78;5037647;28;20464;-60
2023/05/28 04:06:44;;;;;;;8.30;1.98;;;;;;;15.31;44.69;99760.81;5055140;28;20086;-62
2023/05/28 04:09:09;;;;;;;4.30;1.58;;;;;;;15.56;44.38;99806.88;5055065;28;20456;-57
2023/05/28 04:11:37;;;;;;;5.47;1.58;;;;;;;15.26;44.56;99768.53;5055486;28;20372;-60
2023/05/28 04:14:03;;;;;;;2.47;1.63;;;;;;;15.27;45.05;99808.00;5054742;28;20043;-59
2023/05/28 04:16:29;;;;;;;3.45;1.88;;;;;;;15.24;45.67;99812.84;5054388;28;20078;-60
2023/05/28 04:18:55;;;;;;;3.83;1.50;;;;;;;15.31;45.43;99801.28;5055492;28;20072;-67
2023/05/28 04:21:21;;;;;;;1.88;1.38;;;;;;;15.36;44.97;99812.44;5055701;28;20025;-61
2023/05/28 04:23:47;;;;;;;2.72;1.38;;;;;;;15.43;45.20;99811.81;5054834;28;20396;-60
2023/05/28 04:26:14;;;;;;;4.45;1.75;;;;;;;15.59;44.96;99803.03;5054726;28;20025;-62
2023/05/28 04:28:40;;;;;;;3.22;1.65;;;;;;;15.46;44.81;99804.25;5054699;28;20025;-63
2023/05/28 04:31:06;;;;;;;5.65;1.88;;;;;;;15.41;45.13;99808.44;5054860;28;20106;-59
2023/05/28 04:33:32;;;;;;;3.70;1.70;;;;;;;15.30;45.43;99807.69;5054531;28;20427;-61
2023/05/28 04:35:59;;;;;;;4.05;1.92;;;;;;;15.21;45.90;99808.63;5054447;28;20036;-61
2023/05/28 04:38:24;;;;;;;4.63;1.75;;;;;;;15.06;45.78;99817.22;5055205;28;20029;-62
2023/05/28 04:40:50;;;;;;;3.25;1.75;;;;;;;14.91;46.32;99802.56;5054559;28;20029;-59
2023/05/28 04:43:16;;;;;;;7.22;1.63;;;;;;;14.77;46.82;99807.50;5054444;28;20021;-60
2023/05/28 04:45:43;;;;;;;2.25;1.55;;;;;;;14.68;47.20;99821.84;5053626;28;20037;-58
2023/05/28 04:48:08;;;;;;;3.17;1.70;;;;;;;14.36;47.71;99793.50;5036390;28;20029;-61
2023/05/28 04:50:35;;;;;;;5.38;1.80;;;;;;;14.33;47.97;99810.81;5054280;28;20083;-63
2023/05/28 04:53:00;;;;;;;2.75;1.52;;;;;;;14.16;48.26;99804.38;5036877;28;20040;-61
2023/05/28 04:55:26;;;;;;;3.30;1.70;;;;;;;13.93;48.87;99809.28;5054299;28;20348;-62
2023/05/28 04:57:52;;;;;;;5.10;1.75;;;;;;;13.94;49.18;99813.66;5054239;28;20029;-61
2023/05/28 05:00:18;;;;;;;1.95;1.60;;;;;;;14.10;48.91;99823.81;5036419;28;20033;-62
2023/05/28 05:02:44;;;;;;;5.90;1.80;;;;;;;14.44;47.99;99809.75;5035911;28;20059;-60
2023/05/28 05:05:10;;;;;;;7.50;1.88;;;;;;;15.51;46.02;99814.59;5054403;28;20041;-62
2023/05/28 05:07:37;;;;;;;3.50;1.63;;;;;;;16.49;43.24;99812.66;5053815;28;20043;-59
2023/05/28 05:10:10;;;;;;;7.13;1.88;;;;;;;17.11;42.15;99813.34;5052768;28;20111;-57
2023/05/28 05:12:36;;;;;;;3.95;1.80;;;;;;;17.37;41.01;99802.41;5053778;28;20349;-60
2023/05/28 05:15:02;;;;;;;4.72;1.65;;;;;;;17.59;40.43;99798.16;5053532;28;20175;-59
2023/05/28 05:17:30;;;;;;;6.55;1.63;;;;;;;17.94;39.23;99801.50;5053557;28;20056;-61
2023/05/28 05:19:56;;;;;;;2.75;1.45;;;;;;;17.87;38.93;99770.72;5054640;28;20108;-60
2023/05/28 05:22:22;;;;;;;6.15;2.10;;;;;;;17.55;39.59;99795.97;5053442;28;20179;-63
2023/05/28 05:24:50;;;;;;;4.97;1.98;;;;;;;17.23;40.83;99814.75;5053514;28;20041;-61
2023/05/28 05:27:16;;;;;;;7.88;1.95;;;;;;;16.57;41.98;99810.00;5053904;28;20044;-58
2023/05/28 05:29:42;;;;;;;6.40;1.90;;;;;;;16.25;43.09;99810.72;5035505;28;20032;-61
2023/05/28 05:32:09;;;;;;;2.63;1.85;;;;;;;16.20;43.14;99813.88;5053345;28;20025;-61
2023/05/28 05:34:35;;;;;;;2.88;1.83;;;;;;;16.44;42.41;99817.72;5053516;28;20067;-64
2023/05/28 05:37:00;;;;;;;1.85;1.70;;;;;;;16.57;42.53;99811.84;5053867;28;20437;-63
2023/05/28 05:39:27;;;;;;;3.25;2.00;;;;;;;16.65;42.62;99817.31;5035943;28;20024;-64
2023/05/28 05:41:53;;;;;;;3.05;1.48;;;;;;;16.50;42.65;99828.72;5053211;28;20029;-62
2023/05/28 05:44:18;;;;;;;5.05;1.60;;;;;;;16.19;43.33;99814.91;5052940;28;20021;-64
2023/05/28 05:46:44;;;;;;;2.42;1.60;;;;;;;15.89;44.29;99828.72;5053785;28;20059;-63
2023/05/28 05:49:09;;;;;;;4.28;1.90;;;;;;;15.69;44.56;99836.16;5053087;28;20186;-62
2023/05/28 05:51:36;;;;;;;5.05;2.20;;;;;;;15.43;45.14;99817.22;5052323;28;20028;-61
2023/05/28 05:54:04;;;;;;;5.90;2.35;;;;;;;15.30;45.48;99823.84;5053454;28;20337;-65
2023/05/28 05:56:29;;;;;;;5.45;1.88;;;;;;;15.18;46.02;99825.94;5053040;28;20032;-62
2023/05/28 05:58:57;;;;;;;3.60;2.00;;;;;;;15.14;46.11;99831.78;5053018;28;20043;-62
2023/05/28 06:01:23;;;;;;;7.10;2.00;;;;;;;15.12;46.46;99833.78;5034949;28;20134;-64
2023/05/28 06:03:48;;;;;;;6.22;1.80;;;;;;;15.30;46.07;99828.38;5018430;28;20029;-63
2023/05/28 06:06:14;;;;;;;3.47;1.92;;;;;;;15.48;45.73;99837.34;5033560;28;20508;-64
2023/05/28 06:08:39;;;;;;;4.45;2.38;;;;;;;15.31;45.61;99836.34;5050744;28;20453;-62
2023/05/28 06:11:05;;;;;;;7.65;2.13;;;;;;;15.04;46.50;99838.09;5050442;28;20105;-62
2023/05/28 06:13:31;;;;;;;2.13;1.77;;;;;;;14.81;47.39;99847.63;5051269;28;20024;-69
2023/05/28 06:15:59;;;;;;;5.05;2.00;;;;;;;14.51;48.01;99853.13;5051570;28;20109;-62
2023/05/28 06:18:25;;;;;;;4.10;2.10;;;;;;;14.16;49.16;99858.22;5051232;28;20056;-64
2023/05/28 06:20:51;;;;;;;5.97;2.40;;;;;;;14.06;49.28;99862.78;5052322;28;20052;-64
2023/05/28 06:23:17;;;;;;;7.22;2.30;;;;;;;14.04;49.33;99864.78;5035031;28;20040;-63
2023/05/28 06:25:43;;;;;;;3.70;2.38;;;;;;;13.95;49.86;99865.63;5052719;28;20465;-64
2023/05/28 06:28:10;;;;;;;4.60;1.67;;;;;;;13.94;50.00;99870.19;5052802;28;20025;-66
2023/05/28 06:30:35;;;;;;;4.28;2.10;;;;;;;13.94;49.83;99878.25;5051856;28;20033;-64
2023/05/28 06:33:01;;;;;;;6.28;2.30;;;;;;;13.92;49.72;99869.47;5052018;28;20180;-63
2023/05/28 06:35:26;;;;;;;4.53;2.05;;;;;;;13.94;49.77;99870.19;5035084;28;20025;-63
2023/05/28 06:37:52;;;;;;;6.05;2.00;;;;;;;14.11;49.43;99876.66;5050736;28;20033;-64
2023/05/28 06:40:18;;;;;;;5.25;2.28;;;;;;;14.14;49.65;99880.91;5051970;28;20029;-64
2023/05/28 06:42:43;;;;;;;2.90;2.00;;;;;;;14.15;49.43;99874.53;5051841;28;20025;-62
2023/05/28 06:45:09;;;;;;;6.05;2.00;;;;;;;14.43;48.84;99872.72;5051960;28;20464;-64
2023/05/28 06:47:35;;;;;;;8.27;2.65;;;;;;;14.72;48.64;99879.88;5051930;28;20059;-63
2023/05/28 06:50:01;;;;;;;4.22;2.15;;;;;;;14.91;48.08;99872.66;5052550;28;20032;-64
2023/05/28 06:52:27;;;;;;;6.85;2.35;;;;;;;14.78;47.68;99840.69;5050835;28;20025;-64
2023/05/28 06:54:52;;;;;;;5.80;2.10;;;;;;;15.11;47.63;99888.72;5033421;28;20028;-63
2023/05/28 06:57:18;;;;;;;4.03;2.22;;;;;;;15.03;47.53;99890.34;5050544;28;20156;-65
2023/05/28 06:59:43;;;;;;;6.70;2.05;;;;;;;14.85;47.78;99884.06;5045210;28;20603;-64
2023/05/28 07:02:09;;;;;;;1.80;1.70;;;;;;;14.47;48.83;99881.38;5050698;28;20448;-63
2023/05/28 07:04:35;;;;;;;7.38;2.25;;;;;;;14.12;49.91;99894.50;5015266;28;20052;-65
2023/05/28 07:07:00;;;;;;;2.95;2.05;;;;;;;13.98;50.52;99892.25;5051069;28;20029;-64
2023/05/28 07:09:26;;;;;;;9.50;1.95;;;;;;;13.89;50.99;99900.22;5051073;28;20108;-64
2023/05/28 07:11:51;;;;;;;6.18;2.00;;;;;;;13.70;51.63;99893.03;5051456;28;20044;-62
2023/05/28 07:14:17;;;;;;;4.32;2.08;;;;;;;13.54;52.02;99879.28;5051708;28;20032;-62
2023/05/28 07:16:42;;;;;;;9.73;2.13;;;;;;;13.49;52.29;99903.91;5051724;28;20444;-64
2023/05/28 07:19:08;;;;;;;5.80;2.20;;;;;;;13.43;53.16;99899.09;5034172;28;20171;-63
2023/05/28 07:21:34;;;;;;;6.47;2.13;;;;;;;13.44;55.15;99896.28;5051802;28;20041;-63
2023/05/28 07:24:00;;;;;;;4.75;2.33;;;;;;;13.43;55.38;99899.09;5052411;28;20028;-63
2023/05/28 07:26:26;;;;;;;4.38;2.80;;;;;;;13.15;57.00;99886.31;5034028;28;20156;-62
2023/05/28 07:28:51;;;;;;;4.97;2.17;;;;;;;12.96;58.61;99859.41;5051621;28;20039;-62
2023/05/28 07:31:17;;;;;;;4.43;2.10;;;;;;;12.93;59.20;99847.09;5051937;28;20025;-62
2023/05/28 07:33:43;;;;;;;4.43;2.30;;;;;;;13.25;59.87;99883.63;5035314;28;20032;-62
2023/05/28 07:36:08;;;;;;;4.32;2.50;;;;;;;13.45;59.72;99891.72;5055262;28;20025;-62
2023/05/28 07:38:34;;;;;;;5.03;2.10;;;;;;;13.69;58.79;99882.38;5055762;28;20454;-62
2023/05/28 07:41:00;;;;;;;3.97;2.25;;;;;;;13.96;58.00;99881.66;5055890;28;20033;-62
2023/05/28 07:43:25;;;;;;;7.03;2.38;;;;;;;13.97;57.18;99860.97;5055005;28;20047;-63
2023/05/28 07:45:51;;;;;;;7.07;2.65;;;;;;;14.34;56.40;99893.31;5054860;28;20028;-63
2023/05/28 07:48:16;;;;;;;5.70;2.53;;;;;;;14.49;57.05;99869.47;5055427;28;20099;-62
2023/05/28 07:50:42;;;;;;;4.15;2.50;;;;;;;14.55;57.23;99883.31;5055850;28;20065;-61
2023/05/28 07:53:07;;;;;;;4.30;2.55;;;;;;;14.58;56.73;99881.16;5055555;28;20075;-62
2023/05/28 07:55:33;;;;;;;7.30;2.85;;;;;;;14.62;57.09;99877.19;5055431;28;20083;-63
2023/05/28 07:57:58;;;;;;;6.30;2.67;;;;;;;14.80;56.26;99881.81;5055011;28;20360;-62
2023/05/28 08:00:27;;;;;;;6.18;2.90;;;;;;;14.98;56.14;99884.56;5055562;28;20037;-62
2023/05/28 08:02:53;;;;;;;4.32;2.55;;;;;;;15.13;55.38;99889.41;5055251;28;20037;-63
2023/05/28 08:05:18;;;;;;;5.63;2.72;;;;;;;15.28;54.78;99885.22;5054923;28;20033;-64
2023/05/28 08:07:44;;;;;;;5.68;2.38;;;;;;;15.20;54.22;99855.47;5054660;28;20029;-63
2023/05/28 08:10:10;;;;;;;7.40;3.15;;;;;;;15.20;54.26;99867.09;5055547;28;20056;-64
2023/05/28 08:12:36;;;;;;;5.50;3.10;;;;;;;15.40;54.42;99898.44;5055620;28;20363;-63
2023/05/28 08:15:02;;;;;;;5.60;3.33;;;;;;;15.35;54.45;99885.44;5054645;28;20040;-62
2023/05/28 08:17:33;;;;;;;8.27;3.35;;;;;;;15.33;55.07;99892.84;5032019;28;20033;-63
2023/05/28 08:19:59;;;;;;;4.63;2.45;;;;;;;14.90;54.64;99844.00;5035346;28;20087;-65
2023/05/28 08:22:25;;;;;;;7.53;3.17;;;;;;;14.95;55.89;99892.94;5035224;28;20092;-63
2023/05/28 08:24:50;;;;;;;5.78;3.42;;;;;;;14.65;55.98;99889.50;5033165;28;20025;-62
2023/05/28 08:27:16;;;;;;;7.28;3.40;;;;;;;14.46;56.28;99887.75;5034820;28;20148;-62
2023/05/28 08:29:41;;;;;;;6.13;3.20;;;;;;;14.40;55.80;99885.66;5035160;28;20111;-64
2023/05/28 08:32:07;;;;;;;5.95;2.97;;;;;;;14.27;55.62;99886.81;5035303;28;20025;-64
2023/05/28 08:34:36;;;;;;;5.90;3.10;;;;;;;14.18;55.45;99895.78;5033868;28;20036;-63
2023/05/28 08:37:03;;;;;;;6.75;3.65;;;;;;;13.94;57.05;99905.19;5034571;28;20056;-63
2023/05/28 08:39:28;;;;;;;8.10;3.40;;;;;;;13.84;57.29;99905.19;5032875;28;20516;-62
2023/05/28 08:41:54;;;;;;;6.95;3.47;;;;;;;13.60;57.87;99874.19;5034561;28;20043;-63
2023/05/28 08:44:20;;;;;;;6.40;3.70;;;;;;;13.84;58.72;99913.25;5034139;28;20030;-62
2023/05/28 08:46:46;;;;;;;7.07;3.50;;;;;;;13.93;57.21;99909.69;5031925;28;20302;-63
2023/05/28 08:49:14;;;;;;;7.88;3.25;;;;;;;13.98;57.83;99909.28;5034741;28;20071;-64
2023/05/28 08:51:42;;;;;;;6.47;3.22;;;;;;;14.12;57.38;99916.06;5034389;28;20037;-69
2023/05/28 08:54:08;;;;;;;7.57;3.50;;;;;;;14.47;56.85;99909.16;5034796;28;20029;-63
2023/05/28 08:56:34;;;;;;;6.63;3.25;;;;;;;15.05;56.03;99893.72;5034525;28;20124;-63
2023/05/28 08:59:01;;;;;;;6.57;3.38;;;;;;;16.03;55.57;99915.56;5033332;28;20029;-63
2023/05/28 09:01:27;;;;;;;5.78;3.17;;;;;;;16.94;52.04;99913.38;5033404;28;20099;-64
2023/05/28 09:03:53;;;;;;;7.32;3.17;;;;;;;17.62;49.09;99907.97;5032794;28;20041;-63
2023/05/28 09:06:19;;;;;;;7.90;3.30;;;;;;;17.91;48.54;99898.50;5034180;28;20083;-65
2023/05/28 09:08:45;;;;;;;5.55;3.60;;;;;;;18.07;48.29;99893.09;5032717;28;20029;-63
2023/05/28 09:11:13;;;;;;;5.68;3.22;;;;;;;18.33;47.15;99915.59;5034187;28;20033;-66
2023/05/28 09:13:43;;;;;;;4.13;2.83;;;;;;;18.58;46.94;99915.53;5034204;28;20037;-64
2023/05/28 09:16:09;;;;;;;5.85;3.10;;;;;;;18.56;46.34;99901.28;5034458;28;20029;-64
2023/05/28 09:18:35;;;;;;;4.28;2.90;;;;;;;18.71;46.22;99907.69;5051783;28;20045;-64
2023/05/28 09:21:08;;;;;;;5.78;3.45;;;;;;;18.99;44.66;99911.84;5053996;28;20059;-63
2023/05/28 09:23:34;;;;;;;5.72;2.85;;;;;;;19.04;43.64;99898.59;5053829;28;20321;-64
2023/05/28 09:26:02;;;;;;;8.45;3.10;;;;;;;19.15;43.94;99883.78;5053628;28;20043;-63
2023/05/28 09:28:28;;;;;;;6.30;3.22;;;;;;;19.38;43.63;99902.78;5035958;28;20036;-63
2023/05/28 09:31:02;;;;;;;6.10;3.03;;;;;;;19.58;43.36;99899.59;5053374;28;20356;-67
2023/05/28 09:33:28;;;;;;;6.10;3.85;;;;;;;19.67;42.41;99897.69;5053472;28;20369;-64
2023/05/28 09:36:01;;;;;;;4.15;3.10;;;;;;;19.85;42.80;99900.94;5036173;28;20033;-62
2023/05/28 09:38:27;;;;;;;6.00;2.92;;;;;;;19.84;42.52;99891.09;5053632;28;20040;-64
2023/05/28 09:40:56;;;;;;;5.32;3.30;;;;;;;19.85;42.45;99900.94;5035601;28;20020;-63
2023/05/28 09:43:30;;;;;;;5.43;3.45;;;;;;;19.91;43.37;99894.78;5053416;28;20119;-63
2023/05/28 09:46:09;;;;;;;3.58;2.85;;;;;;;19.91;42.27;99870.31;5053205;28;20045;-66
2023/05/28 09:48:34;;;;;;;5.28;3.05;;;;;;;20.02;41.65;99898.09;5053607;28;20056;-63
2023/05/28 09:51:03;;;;;;;3.40;3.10;;;;;;;19.97;40.97;99886.91;5035757;28;20132;-63
2023/05/28 09:53:33;;;;;;;3.40;2.90;;;;;;;19.66;41.60;99869.69;5052808;28;20036;-62
2023/05/28 09:56:00;;;;;;;4.72;3.30;;;;;;;19.61;42.74;99893.81;5036447;28;20094;-62
2023/05/28 09:58:36;;;;;;;6.68;3.30;;;;;;;19.55;42.60;99889.09;5053104;28;20060;-63
2023/05/28 10:01:09;;;;;;;5.68;3.00;;;;;;;19.29;42.51;99891.16;5052493;28;20063;-63
2023/05/28 10:03:48;;;;;;;4.72;3.03;;;;;;;18.93;43.20;99865.38;5034791;28;20032;-63
2023/05/28 10:06:18;;;;;;;6.13;2.70;;;;;;;18.96;42.27;99882.34;5053237;28;20104;-66
2023/05/28 10:08:50;;;;;;;9.30;4.05;;;;;;;18.88;42.91;99891.34;5053107;28;20029;-67
2023/05/28 10:11:21;;;;;;;4.85;2.95;;;;;;;18.51;43.16;99869.28;5034960;28;20029;-63
2023/05/28 10:13:48;;;;;;;4.30;2.47;;;;;;;18.65;42.43;99895.66;5035284;28;20071;-63
2023/05/28 10:16:13;;;;;;;5.97;2.53;;;;;;;18.62;42.05;99862.66;5053363;28;20099;-63
2023/05/28 10:18:41;;;;;;;6.07;2.47;;;;;;;18.82;41.75;99884.75;5018136;28;20056;-64
2023/05/28 10:21:07;;;;;;;5.95;2.50;;;;;;;18.70;42.65;99887.00;5051881;28;20123;-66
2023/05/28 10:23:34;;;;;;;7.28;2.35;;;;;;;18.51;42.08;99861.16;5052458;28;20125;-62
2023/05/28 10:26:00;;;;;;;8.15;2.60;;;;;;;18.68;42.85;99883.63;5052779;28;20037;-63
2023/05/28 10:28:29;;;;;;;6.28;2.60;;;;;;;18.89;42.64;99874.88;5052197;28;20036;-64
2023/05/28 10:31:06;;;;;;;4.18;2.75;;;;;;;19.27;41.97;99876.91;5052445;28;20037;-63
2023/05/28 10:33:37;;;;;;;5.93;2.17;;;;;;;19.41;40.92;99878.03;5052582;28;20025;-63
2023/05/28 10:36:03;;;;;;;3.67;2.28;;;;;;;19.50;40.78;99870.63;5034092;28;20033;-63
2023/05/28 10:38:29;;;;;;;6.30;2.65;;;;;;;19.69;39.24;99873.88;5052301;28;20469;-63
2023/05/28 10:41:02;;;;;;;2.70;1.98;;;;;;;19.89;38.87;99872.34;5052545;28;20360;-63
2023/05/28 10:43:47;;;;;;;3.75;2.70;;;;;;;20.19;38.76;99872.44;5052206;28;20057;-63
2023/05/28 10:46:17;;;;;;;6.35;2.78;;;;;;;20.32;38.07;99884.53;5052117;28;20040;-69
2023/05/28 10:49:07;;;;;;;4.88;2.40;;;;;;;20.41;37.81;99877.97;5051329;28;20044;-63
2023/05/28 10:51:54;;;;;;;4.97;2.15;;;;;;;20.17;37.97;99870.94;5032550;28;20029;-62
2023/05/28 10:54:28;;;;;;;7.55;2.50;;;;;;;19.86;38.97;99875.44;5042671;28;20413;-63
2023/05/28 10:57:14;;;;;;;3.47;2.22;;;;;;;19.92;38.27;99866.59;5051913;28;20034;-63
2023/05/28 10:59:48;;;;;;;6.30;2.50;;;;;;;19.76;40.09;99870.25;5052359;28;20039;-63
2023/05/28 11:02:20;;;;;;;5.15;2.60;;;;;;;19.69;39.47;99844.88;5034344;28;20078;-62
2023/05/28 11:04:46;;;;;;;5.72;3.38;;;;;;;19.54;39.32;99855.69;5034734;28;20037;-64
2023/05/28 11:07:13;;;;;;;5.63;2.75;;;;;;;19.21;40.29;99858.63;5052375;28;20033;-63
2023/05/28 11:09:38;;;;;;;6.07;2.88;;;;;;;18.82;40.49;99786.28;5056199;28;20052;-62
2023/05/28 11:12:05;;;;;;;4.85;2.67;;;;;;;19.30;40.74;99852.13;5056086;28;20021;-61
2023/05/28 11:14:37;;;;;;;3.33;2.67;;;;;;;19.39;39.47;99855.59;5056469;28;20515;-63
2023/05/28 11:17:09;;;;;;;5.22;2.50;;;;;;;19.15;38.04;99848.50;5037871;28;20057;-64
2023/05/28 11:19:46;;;;;;;7.35;2.60;;;;;;;18.77;39.48;99827.50;5038501;28;20044;-64
2023/05/28 11:22:14;;;;;;;2.92;2.50;;;;;;;18.91;39.31;99853.00;5056479;28;20033;-62
2023/05/28 11:24:55;;;;;;;8.02;3.47;;;;;;;19.47;38.54;99855.56;5056063;28;20033;-63
2023/05/28 11:27:23;;;;;;;5.32;2.75;;;;;;;19.79;36.51;99863.63;5054994;28;20471;-63
2023/05/28 11:29:50;;;;;;;4.82;2.50;;;;;;;20.06;36.69;99864.09;5038483;28;20120;-71
2023/05/28 11:32:18;;;;;;;6.35;2.42;;;;;;;20.18;35.84;99848.16;5056366;28;20476;-64